Channing, Michigan
Current Conditions -  °F | °C
As of 5:54 AM on Sunday 21 Dec 2014 (Local Time) from KIMT Reporting Station
Haze Haze  
Wind Chill: 19°   Ceiling: 1600
Heat Index: 27°   Visibility: 4mi
Dew Point: 24°   Wind: 8mph
Humidity: 89%   Direction: 150°SSE
Pressure: 30.09"   Gusts: NA
Location:  46.14°N, 88.09°W
Report Text: KIMT 211154Z AUTO 15007KT 4SM BR SCT006 OVC016 M03/M04 A3009 RMK AO2 SLP209 T10281044 11028 21033 56006
Loading
Personal Weather Stations






























Interactive Weather Map New forecast layout! Learn more

10-Day Weather Forecast

Advertisements
Track Severe Weather on mobile